< < Back
Terminal Aerodrome Forecast


Current Version              Previous Versions:   1  2  3  4  5  6  7  8  9  

Terminal Aerodrome Forecast

251
FTUS42 KGSP 120537
TAFCLT
TAF
KCLT 120537Z 1206/1306 05007KT P6SM BKN200
     FM120900 06005KT P6SM BKN080
      TEMPO 1214/1218 23005KT P6SM -SHSN BKN035 OVC050
     FM121800 24004KT P6SM SCT080 BKN250
     FM130300 31006KT P6SM FEW250=

Latest METAR

500
SAUS70 KWBC 120500 RRB
MTRCLT
METAR KCLT 120452Z 05008KT 10SM FEW250 02/M12 A3024 RMK AO2 SLP242
T00171117 400891083


USA.gov is the U.S. government's official web portal to all federal, state and local government web resources and services.